Open Full Screen Window  High Contrast Mode
Wind Gusting 00 knots
03
April 21, 2018 8:40 PM EDT
Weather Information
Wind Direction
  200 °
Wind Speed
  03 kt (3 mph)
Wind Gust
  00 kt (0 mph)
Altimeter
30.27 in
Visibility
10 SM
Temperature
13° C
55° F
Dewpoint
-02° C
28° F
Humidity
36%
1hr Rain Fall
00.00 in.
24hr Rain Fall
00.00 in.
Sky Condition
Clear
VFR

METAR KBJI 220040Z AUTO 20003KT 10SM CLR 13/M02 A3027 RMK AO2 T01341018

*Background is not an actual portrayal of the airport.